Time;durP1;ratioP1;P1;durP2;ratioP2;P2;SDS_P1;SDS_P2;PMS_P1;PMS_P2;Temp;Humidity;BMP_temperature;BMP_pressure;BME280_temperature;BME280_humidity;BME280_pressure;Samples;Min_cycle;Max_cycle;Signal;HPM_P1;HPM_P2
2023/12/22 00:01:57;;;;;;;4.53;1.10;;;6.50;99.90;;;;;;5017290;28;20230;-75
2023/12/22 00:04:23;;;;;;;1.60;1.10;;;6.50;99.90;;;;;;5016979;28;20222;-75
2023/12/22 00:06:51;;;;;;;3.17;1.25;;;6.50;99.90;;;;;;5017402;28;20206;-77
2023/12/22 00:09:19;;;;;;;0.80;0.77;;;6.60;99.90;;;;;;5015344;28;20202;-77
2023/12/22 00:11:46;;;;;;;1.40;1.00;;;6.60;99.90;;;;;;5015197;28;20265;-75
2023/12/22 00:14:13;;;;;;;3.22;1.20;;;6.80;99.90;;;;;;5014707;28;20203;-77
2023/12/22 04:30:52;;;;;;;3.13;1.23;;;6.60;99.90;;;;;;6166409;22;20397;31
2023/12/22 04:34:04;;;;;;;1.95;1.60;;;6.60;99.90;;;;;;5025541;28;20257;-93
2023/12/22 04:39:43;;;;;;;1.85;1.10;;;6.50;99.90;;;;;;4999919;28;20188;-93
2023/12/22 04:42:10;;;;;;;1.10;1.00;;;6.60;99.90;;;;;;5033354;22;20771;-76
2023/12/22 04:44:37;;;;;;;1.17;0.90;;;6.50;99.90;;;;;;4992475;28;20219;-76
2023/12/22 04:47:04;;;;;;;2.08;1.50;;;6.50;99.90;;;;;;4991487;28;20206;-76
2023/12/22 04:49:32;;;;;;;2.80;1.25;;;6.50;99.90;;;;;;4987676;28;20219;-76
2023/12/22 04:51:58;;;;;;;1.63;1.20;;;6.50;99.90;;;;;;4989245;28;20239;-76
2023/12/22 04:54:26;;;;;;;3.78;0.80;;;6.50;99.90;;;;;;4986292;28;20216;-76
2023/12/22 04:56:52;;;;;;;1.52;1.00;;;6.50;99.90;;;;;;4989645;28;20239;-76
2023/12/22 04:59:19;;;;;;;1.23;0.98;;;6.60;99.90;;;;;;4984148;28;20207;-76
2023/12/22 05:01:46;;;;;;;2.08;0.93;;;6.60;99.90;;;;;;4984299;28;20251;-76
2023/12/22 05:04:13;;;;;;;3.95;1.30;;;6.60;99.90;;;;;;4984707;28;20267;-76
2023/12/22 05:06:41;;;;;;;2.60;1.25;;;6.60;99.90;;;;;;4987022;28;20199;-76
2023/12/22 05:09:07;;;;;;;2.40;1.38;;;6.60;99.90;;;;;;4995400;28;20719;-77
2023/12/22 05:11:34;;;;;;;1.75;1.05;;;6.70;99.90;;;;;;4979466;28;20227;-76
2023/12/22 05:14:01;;;;;;;6.72;1.70;;;6.70;99.90;;;;;;4987786;28;20207;-77
2023/12/22 05:16:29;;;;;;;1.13;1.00;;;6.70;99.90;;;;;;4986546;28;20492;-77
2023/12/22 05:18:56;;;;;;;1.30;1.13;;;6.70;99.90;;;;;;4999774;28;20300;-78
2023/12/22 05:21:22;;;;;;;1.23;1.13;;;6.70;99.90;;;;;;4983573;28;20236;-78
2023/12/22 05:23:50;;;;;;;7.35;1.20;;;6.80;99.90;;;;;;4976303;28;20223;-77
2023/12/22 05:26:18;;;;;;;2.33;1.13;;;6.80;99.90;;;;;;4978875;28;20390;-76
2023/12/22 05:28:45;;;;;;;4.97;1.38;;;6.90;99.90;;;;;;4997800;28;20556;-76
2023/12/22 05:31:12;;;;;;;3.53;1.15;;;6.90;99.90;;;;;;4996517;28;20236;-77
2023/12/22 05:33:38;;;;;;;4.22;1.10;;;7.00;99.90;;;;;;4983189;28;20215;-76
2023/12/22 05:36:06;;;;;;;0.93;0.80;;;7.00;99.90;;;;;;4982233;28;20613;-76
2023/12/22 05:38:32;;;;;;;4.30;1.83;;;6.90;99.90;;;;;;4991063;28;20564;-77
2023/12/22 05:41:00;;;;;;;2.75;1.02;;;6.90;99.90;;;;;;4981157;28;20231;-77
2023/12/22 05:43:27;;;;;;;1.42;1.23;;;6.90;99.90;;;;;;4985937;28;20429;-77
2023/12/22 05:45:54;;;;;;;3.85;0.98;;;7.00;99.90;;;;;;4988687;28;20298;-77
2023/12/22 05:48:21;;;;;;;8.65;1.38;;;7.00;99.90;;;;;;4983668;28;20208;-77
2023/12/22 05:50:48;;;;;;;2.33;1.33;;;7.10;99.90;;;;;;4990640;28;20232;-77
2023/12/22 05:53:16;;;;;;;1.60;1.10;;;7.10;99.90;;;;;;4997975;28;20218;-77
2023/12/22 05:55:42;;;;;;;4.97;1.42;;;7.10;99.90;;;;;;4975748;28;20267;-77
2023/12/22 05:58:10;;;;;;;3.30;1.77;;;7.20;99.90;;;;;;4989441;28;20223;-77
2023/12/22 06:00:37;;;;;;;1.00;0.90;;;7.20;99.90;;;;;;4990699;28;20230;-77
2023/12/22 06:03:05;;;;;;;2.25;0.93;;;7.20;99.90;;;;;;4977086;28;20212;-77
2023/12/22 06:05:32;;;;;;;4.50;1.60;;;7.20;99.90;;;;;;4991104;28;20219;-77
2023/12/22 06:07:59;;;;;;;1.25;1.00;;;7.20;99.90;;;;;;4987701;28;20213;-77
2023/12/22 06:10:25;;;;;;;1.40;0.98;;;7.20;99.90;;;;;;4993153;28;20203;-77
2023/12/22 06:12:52;;;;;;;4.93;1.48;;;7.20;99.90;;;;;;4987237;28;20211;-77
2023/12/22 06:15:20;;;;;;;4.22;1.77;;;7.30;99.90;;;;;;4986251;28;20231;-77
2023/12/22 06:17:47;;;;;;;3.63;1.55;;;7.30;99.90;;;;;;4992507;28;20223;-76
2023/12/22 06:20:14;;;;;;;1.10;1.00;;;7.30;99.90;;;;;;4992505;28;20211;-77
2023/12/22 06:22:40;;;;;;;3.42;1.70;;;7.30;99.90;;;;;;4979532;28;20210;-77
2023/12/22 06:25:09;;;;;;;5.00;1.60;;;7.30;99.90;;;;;;4986516;28;20628;-77
2023/12/22 06:27:36;;;;;;;7.63;1.40;;;7.30;99.90;;;;;;4977128;28;20242;-77
2023/12/22 06:30:04;;;;;;;4.00;1.65;;;7.30;99.90;;;;;;4986133;28;20233;-77
2023/12/22 06:32:32;;;;;;;1.52;1.02;;;7.30;99.90;;;;;;4992507;28;20261;-76
2023/12/22 06:35:00;;;;;;;3.05;1.30;;;7.30;99.90;;;;;;4988170;28;20207;-77
2023/12/22 06:37:27;;;;;;;2.75;1.17;;;7.30;99.90;;;;;;4988705;28;20226;-77
2023/12/22 06:39:53;;;;;;;1.75;1.02;;;7.30;99.90;;;;;;4985383;28;20204;-77
2023/12/22 06:42:21;;;;;;;2.13;1.20;;;7.30;99.90;;;;;;4986215;28;20231;-77
2023/12/22 06:44:48;;;;;;;1.50;1.10;;;7.30;99.90;;;;;;4993268;28;20223;-77
2023/12/22 06:47:14;;;;;;;2.85;1.55;;;7.30;99.90;;;;;;4993351;28;20230;-77
2023/12/22 06:49:44;;;;;;;1.92;0.95;;;7.30;99.90;;;;;;4983768;28;20215;-75
2023/12/22 06:52:11;;;;;;;2.00;1.30;;;7.30;99.90;;;;;;4986712;28;20307;-75
2023/12/22 06:54:38;;;;;;;3.47;1.30;;;7.20;99.90;;;;;;4986962;28;20231;-74
2023/12/22 06:57:05;;;;;;;2.20;1.50;;;7.20;99.90;;;;;;4997749;28;20227;-78
2023/12/22 06:59:31;;;;;;;1.45;1.02;;;7.30;99.90;;;;;;4993406;28;20672;-76
2023/12/22 07:01:58;;;;;;;2.45;1.00;;;7.30;99.90;;;;;;4983688;28;20231;-77
2023/12/22 07:04:25;;;;;;;5.38;1.25;;;7.30;99.90;;;;;;4979095;28;20204;-77
2023/12/22 07:06:53;;;;;;;1.70;1.40;;;7.20;99.90;;;;;;4990011;28;20214;-79
2023/12/22 07:09:34;;;;;;;2.63;1.60;;;7.00;99.90;;;;;;4977662;28;20676;-76
2023/12/22 07:12:01;;;;;;;1.60;1.38;;;7.00;99.90;;;;;;4988497;28;20628;-78
2023/12/22 07:14:27;;;;;;;1.05;0.80;;;6.90;99.90;;;;;;4985396;28;20215;-78
2023/12/22 07:16:54;;;;;;;1.15;0.93;;;6.90;99.90;;;;;;4977996;28;20613;-77
2023/12/22 07:19:22;;;;;;;4.32;1.83;;;6.90;99.90;;;;;;4985019;28;20211;-77
2023/12/22 07:21:49;;;;;;;4.00;1.20;;;6.80;99.90;;;;;;4989973;28;20241;-78
2023/12/22 07:24:18;;;;;;;3.38;1.10;;;6.90;99.90;;;;;;4996052;28;20660;-78
2023/12/22 07:26:45;;;;;;;3.53;1.48;;;6.80;99.90;;;;;;4995238;28;20626;-78
2023/12/22 07:29:12;;;;;;;3.35;1.10;;;6.80;99.90;;;;;;4998738;28;20209;-76
2023/12/22 07:31:38;;;;;;;1.33;1.23;;;6.80;99.90;;;;;;4990347;28;20235;-77
2023/12/22 07:34:05;;;;;;;1.10;0.80;;;6.80;99.90;;;;;;5007143;28;20676;-77
2023/12/22 07:36:32;;;;;;;2.05;1.17;;;6.80;99.90;;;;;;4992638;28;20211;-78
2023/12/22 07:39:00;;;;;;;1.23;1.00;;;6.80;99.90;;;;;;4981335;28;20630;-78
2023/12/22 07:41:28;;;;;;;2.75;1.23;;;6.80;99.90;;;;;;4992347;28;20223;-78
2023/12/22 07:43:55;;;;;;;2.80;1.15;;;6.80;99.90;;;;;;4986056;28;20211;-77
2023/12/22 07:46:23;;;;;;;6.57;1.50;;;6.80;99.90;;;;;;4992626;28;20207;-79
2023/12/22 07:48:50;;;;;;;1.98;1.02;;;6.80;99.90;;;;;;4997681;28;20651;-79
2023/12/22 07:51:17;;;;;;;2.65;1.15;;;6.70;99.90;;;;;;4992246;28;20227;-80
2023/12/22 07:53:44;;;;;;;1.75;1.10;;;6.70;99.90;;;;;;4991985;28;20207;-78
2023/12/22 07:56:11;;;;;;;3.55;1.02;;;6.70;99.90;;;;;;4993318;28;20201;-79
2023/12/22 07:58:39;;;;;;;1.00;0.82;;;6.70;99.90;;;;;;4991509;28;20228;-77
2023/12/22 08:01:06;;;;;;;2.83;1.08;;;6.70;99.90;;;;;;4990531;28;20233;-77
2023/12/22 08:03:33;;;;;;;9.38;2.17;;;6.60;99.90;;;;;;4985663;28;20203;-77
2023/12/22 08:06:00;;;;;;;0.90;0.80;;;6.50;99.90;;;;;;4990998;28;20672;-79
2023/12/22 08:08:27;;;;;;;2.88;1.15;;;6.50;99.90;;;;;;4997931;28;20203;-78
2023/12/22 08:10:54;;;;;;;6.35;1.63;;;6.50;99.90;;;;;;4991186;28;20600;-77
2023/12/22 08:13:20;;;;;;;2.08;1.88;;;6.50;99.90;;;;;;4991574;28;20208;-77
2023/12/22 08:15:48;;;;;;;1.63;1.27;;;6.40;99.90;;;;;;4991172;28;20218;-77
2023/12/22 08:18:15;;;;;;;1.33;1.23;;;6.30;99.90;;;;;;4991529;28;20303;-77
2023/12/22 08:20:42;;;;;;;3.53;1.50;;;6.30;99.90;;;;;;4992800;28;20234;-77
2023/12/22 08:23:09;;;;;;;7.22;1.98;;;6.40;99.90;;;;;;4993611;28;20207;-77
2023/12/22 08:25:36;;;;;;;2.70;1.35;;;6.40;99.90;;;;;;4989527;28;20210;-77
2023/12/22 08:28:03;;;;;;;2.45;1.45;;;6.40;99.90;;;;;;4991397;28;20207;-76
2023/12/22 08:30:30;;;;;;;6.47;1.88;;;6.50;99.90;;;;;;4990882;28;20361;-77
2023/12/22 08:32:58;;;;;;;2.70;2.50;;;6.50;99.90;;;;;;4991307;28;20223;-77
2023/12/22 08:35:24;;;;;;;5.45;1.88;;;6.70;99.90;;;;;;4991044;28;20707;-76
2023/12/22 08:37:51;;;;;;;1.52;1.15;;;6.70;99.90;;;;;;4990628;28;20226;-77
2023/12/22 08:40:18;;;;;;;2.58;1.35;;;6.80;99.90;;;;;;4990814;28;20215;-81
2023/12/22 08:42:44;;;;;;;3.65;1.52;;;6.90;99.90;;;;;;4992953;28;20218;-78
2023/12/22 08:45:11;;;;;;;1.65;1.10;;;6.90;99.90;;;;;;4992549;28;20204;-78
2023/12/22 08:47:38;;;;;;;1.75;1.05;;;6.90;99.90;;;;;;5002924;28;20203;-79
2023/12/22 08:50:09;;;;;;;1.80;1.30;;;6.90;99.90;;;;;;4999043;28;20210;-79
2023/12/22 08:52:36;;;;;;;2.67;1.23;;;6.90;99.90;;;;;;5004917;28;20708;-78
2023/12/22 08:55:03;;;;;;;7.00;2.63;;;6.90;99.90;;;;;;5002018;28;20203;-78
2023/12/22 08:57:30;;;;;;;1.38;1.00;;;6.90;99.90;;;;;;5007411;28;20222;-79
2023/12/22 08:59:57;;;;;;;6.25;1.30;;;6.80;99.90;;;;;;5005808;28;20199;-79
2023/12/22 09:02:23;;;;;;;3.45;1.63;;;6.80;99.90;;;;;;4999263;28;20250;-77
2023/12/22 09:04:50;;;;;;;1.10;0.90;;;6.80;99.90;;;;;;5002475;28;20298;-76
2023/12/22 09:07:19;;;;;;;2.47;1.10;;;6.80;99.90;;;;;;4993365;28;20279;-75
2023/12/22 09:09:45;;;;;;;2.70;1.55;;;6.80;99.90;;;;;;5001296;28;20231;-77
2023/12/22 09:12:12;;;;;;;2.60;1.88;;;6.80;99.90;;;;;;4994217;28;20712;-78
2023/12/22 09:14:39;;;;;;;2.70;1.40;;;6.80;99.90;;;;;;5001918;28;20211;-77
2023/12/22 09:17:06;;;;;;;1.20;1.08;;;6.90;99.90;;;;;;4998559;28;20577;-77
2023/12/22 09:19:33;;;;;;;4.00;1.48;;;6.90;99.90;;;;;;5000153;28;20219;-77
2023/12/22 09:22:00;;;;;;;1.35;1.20;;;6.90;99.90;;;;;;4999307;28;20227;-77
2023/12/22 09:24:28;;;;;;;13.30;1.73;;;6.90;99.90;;;;;;4999143;28;20548;-77
2023/12/22 09:26:54;;;;;;;2.05;1.65;;;7.00;99.90;;;;;;5005707;28;20219;-76
2023/12/22 09:29:21;;;;;;;4.13;1.60;;;7.00;99.90;;;;;;5006479;28;20203;-78
2023/12/22 09:31:48;;;;;;;3.97;2.22;;;7.00;99.90;;;;;;5005157;28;20223;-79
2023/12/22 09:34:15;;;;;;;7.30;2.90;;;7.10;99.90;;;;;;5002196;28;20265;-76
2023/12/22 09:36:42;;;;;;;1.98;1.42;;;7.10;99.90;;;;;;4993611;28;20258;-76
2023/12/22 09:39:09;;;;;;;2.55;1.00;;;7.20;99.90;;;;;;4994130;28;20226;-77
2023/12/22 09:41:37;;;;;;;2.42;1.23;;;7.20;99.90;;;;;;4993860;28;20227;-78
2023/12/22 09:44:06;;;;;;;3.20;2.00;;;7.20;99.90;;;;;;4991170;28;20207;-77
2023/12/22 09:46:35;;;;;;;3.80;1.55;;;7.20;99.90;;;;;;4989392;28;20202;-76
2023/12/22 09:49:02;;;;;;;4.13;2.05;;;7.30;99.90;;;;;;4993470;28;20204;-78
2023/12/22 09:51:31;;;;;;;3.63;1.80;;;7.30;99.90;;;;;;4990023;28;20616;-78
2023/12/22 09:53:59;;;;;;;4.15;1.60;;;7.30;99.90;;;;;;4988939;28;20621;-77
2023/12/22 09:56:26;;;;;;;4.22;1.70;;;7.30;99.90;;;;;;4990022;28;20216;-77
2023/12/22 09:58:57;;;;;;;6.78;1.80;;;7.30;99.90;;;;;;4986892;28;20223;-77
2023/12/22 10:01:24;;;;;;;4.43;1.88;;;7.30;99.90;;;;;;4991971;28;20219;-77
2023/12/22 10:03:51;;;;;;;4.03;1.50;;;7.40;99.90;;;;;;4986170;28;20294;-78
2023/12/22 10:06:18;;;;;;;5.47;1.50;;;7.40;99.90;;;;;;4989730;28;20207;-77
2023/12/22 10:08:47;;;;;;;2.90;1.73;;;7.40;99.90;;;;;;4992332;28;20210;-77
2023/12/22 10:11:15;;;;;;;6.88;2.10;;;7.40;99.90;;;;;;4986027;28;20228;-78
2023/12/22 10:13:42;;;;;;;7.47;1.75;;;7.40;99.90;;;;;;4992706;28;20217;-78
2023/12/22 10:16:10;;;;;;;7.78;2.00;;;7.40;99.90;;;;;;4985767;28;20238;-78
2023/12/22 10:18:37;;;;;;;2.25;1.85;;;7.40;99.90;;;;;;4988621;28;20222;-78
2023/12/22 10:21:04;;;;;;;6.63;1.60;;;7.40;99.90;;;;;;4989211;28;20228;-78
2023/12/22 10:23:31;;;;;;;5.05;2.00;;;7.50;99.90;;;;;;4993547;28;20212;-77
2023/12/22 10:25:59;;;;;;;2.55;1.13;;;7.50;99.90;;;;;;4985028;28;20255;-76
2023/12/22 10:28:28;;;;;;;3.72;1.38;;;7.60;99.90;;;;;;4989093;28;20219;-79
2023/12/22 10:31:03;;;;;;;3.17;1.52;;;7.60;99.90;;;;;;4986492;28;20335;-79
2023/12/22 10:33:32;;;;;;;4.15;1.20;;;7.60;99.90;;;;;;5005287;28;20215;-79
2023/12/22 10:36:00;;;;;;;9.05;2.58;;;7.60;99.90;;;;;;5002128;28;20239;-78
2023/12/22 10:38:33;;;;;;;7.13;1.50;;;7.60;99.90;;;;;;5003936;28;20215;-79
2023/12/22 10:41:00;;;;;;;4.60;2.22;;;7.60;99.90;;;;;;5000412;28;20234;-77
2023/12/22 10:43:39;;;;;;;3.95;1.70;;;7.60;99.90;;;;;;5004321;28;20203;-77
2023/12/22 10:49:45;;;;;;;3.70;1.70;;;7.60;99.90;;;;;;4903740;29;20205;-76
2023/12/22 10:52:30;;;;;;;2.25;1.60;;;7.60;99.90;;;;;;5020208;28;20246;-77
2023/12/22 10:55:34;;;;;;;0.93;0.82;;;7.60;99.90;;;;;;4997242;28;20209;-76
2023/12/22 11:01:38;;;;;;;1.30;0.70;;;7.60;99.90;;;;;;4976001;28;20291;-77
2023/12/22 11:04:08;;;;;;;2.05;1.25;;;7.60;99.90;;;;;;5019927;28;20242;-77
2023/12/22 11:06:38;;;;;;;1.15;1.05;;;7.60;99.90;;;;;;5012965;28;20202;-77
2023/12/22 11:09:08;;;;;;;2.60;1.15;;;7.60;99.90;;;;;;5012382;28;20238;-76
2023/12/22 11:11:43;;;;;;;2.22;1.60;;;7.60;99.90;;;;;;5020043;28;20218;-77
2023/12/22 11:14:35;;;;;;;2.28;1.08;;;7.60;99.90;;;;;;5020131;28;20293;-74
2023/12/22 11:17:17;;;;;;;4.05;1.38;;;7.60;99.90;;;;;;5006986;28;20226;-74
2023/12/22 11:19:50;;;;;;;1.90;0.93;;;7.60;99.90;;;;;;5011822;28;20691;-74
2023/12/22 11:26:16;;;;;;;1.10;1.00;;;7.50;99.90;;;;;;5004683;28;20218;-77
2023/12/22 11:28:46;;;;;;;1.15;0.93;;;7.50;99.90;;;;;;5007805;28;20202;-77
2023/12/22 11:31:16;;;;;;;3.38;1.10;;;7.40;99.90;;;;;;5017191;28;20338;-77
2023/12/22 11:37:16;;;;;;;5.05;1.20;;;7.40;99.90;;;;;;4954782;28;20273;-77
2023/12/22 11:39:44;;;;;;;1.23;0.90;;;7.30;99.90;;;;;;5017666;28;20317;-77
2023/12/22 11:42:16;;;;;;;1.38;0.93;;;7.20;99.90;;;;;;5025931;28;20230;-74
2023/12/22 11:44:43;;;;;;;3.47;1.50;;;7.20;99.90;;;;;;5010539;28;20215;-78
2023/12/22 11:47:13;;;;;;;1.20;0.93;;;7.10;99.90;;;;;;5024632;28;20582;-78
2023/12/22 11:49:40;;;;;;;1.63;1.40;;;7.10;99.90;;;;;;5011635;28;20218;-78
2023/12/22 11:52:14;;;;;;;1.00;0.90;;;7.10;99.90;;;;;;5023289;28;20234;-78
2023/12/22 11:54:47;;;;;;;0.80;0.80;;;7.00;99.90;;;;;;5018649;28;20202;-78
2023/12/22 12:00:41;;;;;;;1.23;1.00;;;6.80;99.90;;;;;;5000307;28;20202;-79
2023/12/22 12:03:08;;;;;;;1.55;1.13;;;6.80;99.90;;;;;;5016684;28;20294;-78
2023/12/22 12:05:38;;;;;;;1.33;1.00;;;6.90;99.90;;;;;;5016173;28;20206;-78
2023/12/22 12:08:08;;;;;;;0.90;0.80;;;6.80;99.90;;;;;;5011809;28;20206;-74
2023/12/22 12:10:53;;;;;;;2.17;1.10;;;6.80;99.90;;;;;;5012277;28;20707;-76
2023/12/22 12:13:25;;;;;;;2.58;1.15;;;6.90;99.90;;;;;;5010703;28;20653;-73
2023/12/22 12:15:56;;;;;;;1.13;0.70;;;6.80;99.90;;;;;;5009907;28;20207;-72
2023/12/22 12:18:24;;;;;;;1.00;0.90;;;6.80;99.90;;;;;;5008601;28;20765;-74
2023/12/22 12:20:51;;;;;;;1.98;1.23;;;6.80;99.90;;;;;;5009848;28;20241;-74
2023/12/22 12:23:18;;;;;;;2.65;1.10;;;6.70;99.90;;;;;;5009588;28;20441;-74
2023/12/22 12:25:45;;;;;;;2.38;1.80;;;6.70;99.90;;;;;;5011525;28;20293;-78
2023/12/22 12:28:12;;;;;;;2.08;0.90;;;6.70;99.90;;;;;;5013923;28;20289;-73
2023/12/22 12:30:41;;;;;;;1.75;1.08;;;6.70;99.90;;;;;;5014372;28;20233;-72
2023/12/22 12:33:10;;;;;;;1.95;1.42;;;6.70;99.90;;;;;;5012672;28;20230;-76
2023/12/22 12:35:36;;;;;;;1.67;1.27;;;6.80;99.90;;;;;;5016886;28;20221;-77
2023/12/22 12:38:04;;;;;;;5.63;1.10;;;6.80;99.90;;;;;;5017091;28;20210;-78
2023/12/22 12:40:33;;;;;;;1.42;1.20;;;6.70;99.90;;;;;;5025715;28;20233;-76
2023/12/22 12:43:00;;;;;;;2.17;1.60;;;6.80;99.90;;;;;;5014528;28;20636;-77
2023/12/22 12:45:27;;;;;;;2.58;1.30;;;6.70;99.90;;;;;;5014506;28;20207;-76
2023/12/22 12:47:58;;;;;;;3.90;1.27;;;6.70;99.90;;;;;;5013955;28;20672;-76
2023/12/22 12:50:28;;;;;;;1.40;1.05;;;6.70;99.90;;;;;;5014053;28;20849;-77
2023/12/22 12:52:55;;;;;;;1.38;1.27;;;6.70;99.90;;;;;;5015452;28;20570;-76
2023/12/22 12:55:23;;;;;;;1.17;1.08;;;6.70;99.90;;;;;;5014358;28;20274;-75
2023/12/22 12:57:51;;;;;;;2.15;1.25;;;6.70;99.90;;;;;;5014179;28;20218;-76
2023/12/22 13:00:24;;;;;;;1.20;1.10;;;6.80;99.90;;;;;;5016466;28;20222;-78
2023/12/22 13:02:51;;;;;;;0.93;0.82;;;6.80;99.90;;;;;;5018789;28;20305;-79
2023/12/22 13:05:22;;;;;;;0.70;0.63;;;6.80;99.90;;;;;;5018383;28;20298;-79
2023/12/22 13:07:50;;;;;;;0.82;0.77;;;6.90;99.90;;;;;;5022282;28;20210;-78
2023/12/22 13:10:24;;;;;;;0.80;0.70;;;6.90;99.90;;;;;;5013453;28;20211;-76
2023/12/22 13:12:53;;;;;;;0.80;0.77;;;6.90;99.90;;;;;;5014232;28;20229;-76
2023/12/22 13:15:22;;;;;;;0.98;0.70;;;7.00;99.90;;;;;;5013273;28;20218;-76
2023/12/22 13:17:49;;;;;;;1.27;0.88;;;7.10;99.90;;;;;;5013640;28;20214;-76
2023/12/22 13:20:16;;;;;;;0.85;0.70;;;7.00;99.90;;;;;;5013603;28;20233;-77
2023/12/22 13:22:43;;;;;;;0.80;0.80;;;7.10;99.90;;;;;;5022571;28;20606;-77
2023/12/22 13:25:12;;;;;;;0.80;0.70;;;7.20;99.90;;;;;;5016721;28;20411;-77
2023/12/22 13:27:46;;;;;;;0.77;0.70;;;7.20;99.90;;;;;;5020500;28;20213;-77
2023/12/22 13:30:13;;;;;;;0.70;0.70;;;7.20;99.90;;;;;;5021837;28;20614;-76
2023/12/22 13:32:40;;;;;;;2.97;0.85;;;7.30;99.90;;;;;;5014108;28;20217;-76
2023/12/22 13:35:07;;;;;;;1.00;0.80;;;7.30;99.90;;;;;;5013575;28;20695;-74
2023/12/22 13:37:34;;;;;;;0.80;0.70;;;7.40;99.90;;;;;;5013735;28;20207;-77
2023/12/22 13:40:01;;;;;;;0.80;0.80;;;7.40;99.90;;;;;;5014293;28;20231;-77
2023/12/22 13:42:29;;;;;;;1.48;0.70;;;7.40;99.90;;;;;;5013165;28;20596;-77
2023/12/22 13:44:56;;;;;;;0.80;0.70;;;7.50;99.90;;;;;;5013628;28;20221;-76
2023/12/22 13:47:23;;;;;;;0.80;0.70;;;7.50;99.90;;;;;;5013459;28;20243;-77
2023/12/22 13:49:50;;;;;;;1.42;1.00;;;7.50;99.90;;;;;;5013041;28;20207;-76
2023/12/22 13:52:27;;;;;;;0.70;0.60;;;7.60;99.90;;;;;;5013921;28;20227;-78
2023/12/22 13:54:56;;;;;;;1.20;0.77;;;7.70;99.90;;;;;;5014955;28;20237;-78
2023/12/22 13:57:23;;;;;;;0.70;0.60;;;7.80;99.90;;;;;;5014060;28;20228;-76
2023/12/22 13:59:52;;;;;;;0.70;0.70;;;7.90;99.90;;;;;;5010495;28;20486;-74
2023/12/22 14:02:21;;;;;;;0.90;0.70;;;7.90;99.90;;;;;;5012669;28;20230;-75
2023/12/22 14:04:48;;;;;;;1.10;0.98;;;8.00;99.90;;;;;;5012914;28;20245;-75
2023/12/22 14:07:15;;;;;;;0.70;0.70;;;8.00;99.90;;;;;;5012403;28;20275;-76
2023/12/22 14:09:42;;;;;;;4.28;0.88;;;8.10;99.90;;;;;;5014983;28;20208;-76
2023/12/22 14:12:09;;;;;;;1.00;0.90;;;8.10;99.90;;;;;;5013445;28;20776;-76
2023/12/22 14:14:39;;;;;;;3.95;0.88;;;8.10;99.90;;;;;;5011915;28;20214;-79
2023/12/22 14:17:13;;;;;;;0.80;0.70;;;8.20;99.90;;;;;;5015725;28;20658;-79
2023/12/22 14:19:49;;;;;;;0.70;0.60;;;8.20;99.90;;;;;;5012606;28;20230;-79
2023/12/22 14:22:16;;;;;;;0.80;0.60;;;8.20;99.90;;;;;;5022152;28;20287;-78
2023/12/22 14:24:50;;;;;;;0.93;0.75;;;8.30;99.90;;;;;;5020374;28;20214;-77
2023/12/22 14:27:20;;;;;;;0.90;0.80;;;8.30;99.90;;;;;;5025552;28;20212;-77
2023/12/22 14:29:59;;;;;;;0.80;0.70;;;8.20;99.90;;;;;;5018039;28;20691;-78
2023/12/22 14:32:46;;;;;;;0.90;0.80;;;8.30;99.90;;;;;;5016954;28;20230;-78
2023/12/22 14:35:28;;;;;;;0.90;0.80;;;8.40;99.90;;;;;;5019913;28;20211;-77
2023/12/22 14:38:01;;;;;;;0.85;0.73;;;8.40;99.90;;;;;;5014832;28;20218;-77
2023/12/22 14:44:21;;;;;;;1.20;0.70;;;8.40;99.90;;;;;;4970869;28;20604;-74
2023/12/22 14:47:34;;;;;;;0.80;0.75;;;8.50;99.90;;;;;;5006218;28;20211;-77
2023/12/22 14:50:17;;;;;;;1.05;0.80;;;8.60;99.90;;;;;;5012887;28;20213;-76
2023/12/22 14:56:55;;;;;;;1.20;0.80;;;8.50;99.90;;;;;;4987498;28;20203;-79
2023/12/22 15:02:28;;;;;;;1.60;0.80;;;8.60;99.90;;;;;;5012507;28;20228;-81
2023/12/22 15:08:45;;;;;;;1.13;1.00;;;8.60;99.90;;;;;;5012451;28;20254;-78
2023/12/22 15:11:13;;;;;;;0.90;0.70;;;8.70;99.90;;;;;;5014144;28;20215;-75
2023/12/22 15:13:59;;;;;;;0.70;0.70;;;8.70;99.90;;;;;;5011915;28;20226;-77
2023/12/22 15:16:39;;;;;;;1.42;0.90;;;8.70;99.90;;;;;;5020434;28;20226;-77
2023/12/22 15:19:12;;;;;;;0.90;0.70;;;8.70;99.90;;;;;;5012258;28;20243;-75
2023/12/22 15:21:45;;;;;;;1.10;0.80;;;8.60;99.90;;;;;;5002633;28;20646;-75
2023/12/22 15:27:11;;;;;;;0.80;0.70;;;8.70;99.90;;;;;;4985376;28;20270;-75
2023/12/22 15:29:38;;;;;;;0.80;0.70;;;8.70;99.90;;;;;;5005224;28;20211;-75
2023/12/22 15:32:06;;;;;;;3.17;1.00;;;8.60;99.90;;;;;;5019061;28;20230;-77
2023/12/22 15:34:34;;;;;;;1.13;0.70;;;8.60;99.90;;;;;;5013689;28;20261;-77
2023/12/22 15:37:02;;;;;;;1.00;0.90;;;8.70;99.90;;;;;;5012254;28;20217;-77
2023/12/22 15:39:31;;;;;;;0.80;0.70;;;8.60;99.90;;;;;;5013076;28;20567;-77
2023/12/22 15:41:58;;;;;;;1.02;0.93;;;8.60;99.90;;;;;;5013576;28;20243;-77
2023/12/22 15:44:25;;;;;;;0.70;0.60;;;8.70;99.90;;;;;;5012351;28;20212;-78
2023/12/22 15:46:51;;;;;;;0.90;0.80;;;8.60;99.90;;;;;;5013755;28;20597;-81
2023/12/22 15:49:18;;;;;;;1.05;0.70;;;8.70;99.90;;;;;;5014804;28;20209;-77
2023/12/22 15:51:45;;;;;;;0.70;0.60;;;8.70;99.90;;;;;;5020206;28;20282;-78
2023/12/22 15:54:12;;;;;;;0.70;0.60;;;8.70;99.90;;;;;;5032619;28;20211;-79
2023/12/22 15:56:40;;;;;;;0.82;0.77;;;8.70;99.90;;;;;;5033974;28;20207;-77
2023/12/22 15:59:07;;;;;;;0.95;0.85;;;8.70;99.90;;;;;;5034605;28;20276;-80
2023/12/22 16:01:33;;;;;;;0.80;0.70;;;8.80;99.90;;;;;;5015489;28;20232;-77
2023/12/22 16:04:00;;;;;;;0.80;0.75;;;8.80;99.90;;;;;;5010547;28;20207;-77
2023/12/22 16:06:27;;;;;;;1.00;0.75;;;8.80;99.90;;;;;;5005500;28;21277;-77
2023/12/22 16:08:53;;;;;;;0.98;0.68;;;8.80;99.90;;;;;;5013996;28;20217;-78
2023/12/22 16:11:21;;;;;;;0.80;0.70;;;8.80;99.90;;;;;;5012643;28;20582;-78
2023/12/22 16:13:49;;;;;;;0.70;0.70;;;8.80;99.90;;;;;;5016876;28;20213;-77
2023/12/22 16:16:19;;;;;;;0.70;0.70;;;8.80;99.90;;;;;;5013939;28;20215;-77
2023/12/22 16:18:46;;;;;;;0.80;0.70;;;8.80;99.90;;;;;;5010493;28;20213;-77
2023/12/22 16:21:12;;;;;;;0.80;0.80;;;8.80;99.90;;;;;;5011033;28;20243;-77
2023/12/22 16:23:39;;;;;;;1.13;0.75;;;8.80;99.90;;;;;;5013566;28;20663;-78
2023/12/22 16:26:07;;;;;;;0.70;0.70;;;8.80;99.90;;;;;;5020998;28;20206;-78
2023/12/22 16:28:34;;;;;;;0.85;0.73;;;8.80;99.90;;;;;;5017536;28;20203;-76
2023/12/22 16:31:03;;;;;;;1.25;0.80;;;8.80;99.90;;;;;;5015429;28;20232;-81
2023/12/22 16:33:30;;;;;;;1.38;1.27;;;8.80;99.90;;;;;;5020104;28;20210;-81
2023/12/22 16:35:57;;;;;;;1.00;0.90;;;8.80;99.90;;;;;;5023506;28;20195;-78
2023/12/22 16:38:24;;;;;;;1.02;0.95;;;8.80;99.90;;;;;;5031373;28;20204;-78
2023/12/22 16:40:51;;;;;;;0.90;0.75;;;8.80;99.90;;;;;;5017997;28;20236;-79
2023/12/22 16:43:18;;;;;;;0.80;0.73;;;8.70;99.90;;;;;;5019111;28;20220;-79
2023/12/22 16:45:44;;;;;;;0.90;0.80;;;8.80;99.90;;;;;;5018768;28;20216;-81
2023/12/22 16:48:12;;;;;;;0.80;0.70;;;8.70;99.90;;;;;;5017456;28;20216;-79
2023/12/22 16:50:39;;;;;;;0.77;0.73;;;8.80;99.90;;;;;;5015165;28;20227;-79
2023/12/22 16:53:06;;;;;;;1.70;0.90;;;8.80;99.90;;;;;;5016708;28;20629;-79
2023/12/22 16:55:33;;;;;;;0.82;0.75;;;8.80;99.90;;;;;;5016249;28;20214;-79
2023/12/22 16:57:59;;;;;;;1.20;0.80;;;8.80;99.90;;;;;;5013496;28;20728;-79
2023/12/22 17:00:27;;;;;;;0.80;0.70;;;8.80;99.90;;;;;;5009013;28;20314;-78
2023/12/22 17:02:54;;;;;;;0.70;0.60;;;8.80;99.90;;;;;;5011701;28;20742;-78
2023/12/22 17:05:23;;;;;;;0.70;0.60;;;8.80;99.90;;;;;;5011535;28;20211;-78
2023/12/22 17:07:51;;;;;;;0.90;0.80;;;8.80;99.90;;;;;;5005582;28;20212;-78
2023/12/22 17:10:54;;;;;;;2.35;0.70;;;8.70;99.90;;;;;;5019989;28;20196;-78
2023/12/22 17:13:21;;;;;;;0.80;0.70;;;8.80;99.90;;;;;;5014532;28;20294;-79
2023/12/22 17:15:48;;;;;;;0.93;0.82;;;8.80;99.90;;;;;;5016619;28;20212;-77
2023/12/22 17:18:15;;;;;;;1.08;0.82;;;8.90;99.90;;;;;;5013618;28;20209;-77
2023/12/22 17:20:43;;;;;;;0.80;0.70;;;8.90;99.90;;;;;;5013160;28;20246;-77
2023/12/22 17:23:10;;;;;;;0.90;0.80;;;8.80;99.90;;;;;;5010756;28;20207;-79
2023/12/22 17:25:37;;;;;;;0.77;0.75;;;8.80;99.90;;;;;;5011305;28;20232;-79
2023/12/22 17:28:04;;;;;;;1.20;0.85;;;8.90;99.90;;;;;;5010436;28;20200;-78
2023/12/22 17:30:31;;;;;;;0.80;0.70;;;8.90;99.90;;;;;;5008033;28;20212;-78
2023/12/22 17:32:58;;;;;;;1.05;0.88;;;8.80;99.90;;;;;;5014265;28;20206;-78
2023/12/22 17:35:25;;;;;;;0.80;0.70;;;8.80;99.90;;;;;;5014571;28;20302;-79
2023/12/22 17:37:53;;;;;;;1.30;0.90;;;8.80;99.90;;;;;;5009255;28;20220;-78
2023/12/22 17:40:20;;;;;;;1.20;0.90;;;8.80;99.90;;;;;;5015260;28;20718;-79
2023/12/22 17:42:48;;;;;;;1.20;0.90;;;8.80;99.90;;;;;;5010791;28;20236;-77
2023/12/22 17:45:15;;;;;;;0.90;0.70;;;8.80;99.90;;;;;;4993984;28;20215;-77
2023/12/22 17:47:42;;;;;;;0.90;0.73;;;8.80;99.90;;;;;;4992516;28;20216;-76
2023/12/22 17:50:11;;;;;;;0.80;0.80;;;8.80;99.90;;;;;;4994011;28;20203;-79
2023/12/22 17:52:38;;;;;;;2.35;0.80;;;8.80;99.90;;;;;;4995835;28;20230;-78
2023/12/22 17:55:07;;;;;;;1.17;0.90;;;8.80;99.90;;;;;;4994787;28;20225;-78
2023/12/22 17:57:34;;;;;;;1.20;0.80;;;8.80;99.90;;;;;;4994360;28;20211;-79
2023/12/22 18:00:00;;;;;;;1.05;0.70;;;8.80;99.90;;;;;;4994576;28;20201;-79